Time;durP1;ratioP1;P1;durP2;ratioP2;P2;SDS_P1;SDS_P2;PMS_P1;PMS_P2;Temp;Humidity;BMP_temperature;BMP_pressure;BME280_temperature;BME280_humidity;BME280_pressure;Samples;Min_cycle;Max_cycle;Signal;HPM_P1;HPM_P2
2022/06/02 00:00:00;;;;;;;12.23;10.20;;;;;;;23.54;55.69;100693.69;4957655;28;20043;-58
2022/06/02 00:03:24;;;;;;;19.30;11.70;;;;;;;23.54;55.65;100692.91;4953137;29;20051;-59
2022/06/02 00:06:11;;;;;;;15.00;10.18;;;;;;;23.56;55.54;100715.50;4954545;28;20396;-59
2022/06/02 00:09:10;;;;;;;17.70;11.15;;;;;;;23.61;55.58;100715.09;4972454;28;20051;-59
2022/06/02 00:12:07;;;;;;;16.65;10.90;;;;;;;23.59;55.46;100712.69;4972284;28;20494;-60
2022/06/02 00:15:18;;;;;;;15.50;10.65;;;;;;;23.61;55.41;100726.19;4965316;28;20407;-60
2022/06/02 00:18:17;;;;;;;15.68;11.40;;;;;;;23.57;55.33;100720.63;4975274;28;20030;-60
2022/06/02 00:21:17;;;;;;;21.98;11.77;;;;;;;23.59;55.45;100714.69;4966789;28;20038;-60
2022/06/02 00:24:32;;;;;;;19.45;11.93;;;;;;;23.55;55.39;100711.94;4971934;28;20050;-60
2022/06/02 00:27:38;;;;;;;12.93;11.20;;;;;;;23.54;55.48;100709.56;4972295;28;20039;-60
2022/06/02 00:30:33;;;;;;;22.42;13.68;;;;;;;23.42;55.56;100703.22;4975776;28;20043;-62
2022/06/02 00:33:37;;;;;;;16.85;11.95;;;;;;;23.41;55.83;100700.88;4972994;28;20618;-62
2022/06/02 00:36:38;;;;;;;14.02;11.52;;;;;;;23.41;55.78;100698.09;4976622;28;20042;-60
2022/06/02 00:39:23;;;;;;;16.27;11.13;;;;;;;23.42;55.60;100705.19;4971105;28;20055;-60
2022/06/02 00:42:37;;;;;;;23.88;12.68;;;;;;;23.41;55.49;100700.88;4954230;29;20039;-60
2022/06/02 00:45:22;;;;;;;19.75;12.93;;;;;;;23.14;56.70;100696.97;4957266;28;20039;-61
2022/06/02 00:48:19;;;;;;;16.17;12.18;;;;;;;22.97;56.95;100701.38;4961437;28;20510;-60
2022/06/02 00:51:09;;;;;;;16.10;11.85;;;;;;;22.98;57.31;100703.75;4971947;28;20035;-60
2022/06/02 01:00:41;;;;;;;17.17;11.18;;;;;;;23.29;56.36;100701.28;4976080;28;20035;-60
2022/06/02 01:03:38;;;;;;;17.17;11.63;;;;;;;23.29;56.14;100706.84;4980182;28;20046;-61
2022/06/02 01:06:26;;;;;;;18.20;12.07;;;;;;;23.28;56.28;100700.50;4977836;28;20051;-60
2022/06/02 01:09:32;;;;;;;16.88;12.52;;;;;;;23.27;56.05;100693.38;4974915;28;20046;-60
2022/06/02 01:12:35;;;;;;;16.95;13.20;;;;;;;23.28;56.16;100703.28;4974834;28;20038;-60
2022/06/02 01:15:50;;;;;;;17.27;13.02;;;;;;;23.33;56.17;100699.28;4972649;28;20034;-59
2022/06/02 01:18:58;;;;;;;21.98;13.93;;;;;;;23.31;55.79;100705.25;4977721;28;20039;-60
2022/06/02 01:21:56;;;;;;;20.75;12.98;;;;;;;23.28;55.92;100702.47;4976801;28;20035;-60
2022/06/02 01:24:57;;;;;;;18.60;13.07;;;;;;;23.26;55.98;100700.09;4977179;28;20039;-59
2022/06/02 01:28:18;;;;;;;17.17;12.30;;;;;;;23.30;55.74;100700.09;4975661;28;20414;-60
2022/06/02 01:31:25;;;;;;;22.40;12.02;;;;;;;23.28;56.00;100699.72;4975495;28;20047;-60
2022/06/02 01:34:32;;;;;;;19.45;11.85;;;;;;;23.31;55.67;100690.59;4977139;28;20039;-60
2022/06/02 01:37:28;;;;;;;19.85;12.43;;;;;;;23.28;55.61;100694.16;4979942;28;20039;-59
2022/06/02 01:40:45;;;;;;;19.00;12.02;;;;;;;23.28;55.85;100694.94;4977555;28;20043;-59
2022/06/02 01:43:43;;;;;;;22.90;12.25;;;;;;;23.28;55.59;100700.50;4979569;28;20490;-60
2022/06/02 01:46:41;;;;;;;16.58;12.25;;;;;;;23.28;55.67;100696.94;4976414;28;20047;-60
2022/06/02 01:49:36;;;;;;;16.65;11.20;;;;;;;23.27;55.40;100706.44;4979085;28;20039;-59
2022/06/02 01:52:36;;;;;;;19.05;12.13;;;;;;;23.26;55.56;100705.66;4972150;28;20046;-64
2022/06/02 01:55:47;;;;;;;20.45;13.20;;;;;;;23.28;55.46;100713.59;4971751;28;20053;-63
2022/06/02 01:58:49;;;;;;;22.48;12.80;;;;;;;23.25;55.27;100706.88;4974725;28;20043;-61
2022/06/02 02:02:01;;;;;;;25.40;14.88;;;;;;;23.24;55.48;100712.81;4973344;28;20038;-60
2022/06/02 02:05:05;;;;;;;18.70;14.82;;;;;;;23.21;55.02;100713.63;4974884;28;20043;-60
2022/06/02 02:08:09;;;;;;;20.30;14.85;;;;;;;23.00;55.18;100708.91;4974970;28;20030;-60
2022/06/02 02:11:05;;;;;;;18.92;14.82;;;;;;;22.89;55.57;100714.47;4969081;28;20047;-61
2022/06/02 02:14:05;;;;;;;23.30;15.27;;;;;;;22.72;56.22;100709.75;4967744;28;20042;-60
2022/06/02 02:16:59;;;;;;;17.08;11.90;;;;;;;22.91;56.26;100706.53;4969796;28;20039;-60
2022/06/02 02:20:18;;;;;;;16.70;12.50;;;;;;;22.91;56.46;100714.06;4975577;28;20046;-60
2022/06/02 02:23:13;;;;;;;20.67;14.85;;;;;;;22.80;55.74;100708.56;4968798;28;20051;-60
2022/06/02 02:26:09;;;;;;;;;;;;;;;22.84;56.33;100709.34;4975052;28;20046;-60
2022/06/02 02:29:12;;;;;;;18.95;13.00;;;;;;;22.82;55.99;100703.38;4973719;28;20402;-63
2022/06/02 02:32:23;;;;;;;24.05;14.10;;;;;;;22.86;55.82;100709.72;4974229;28;20043;-59
2022/06/02 02:35:24;;;;;;;18.75;13.45;;;;;;;22.88;55.92;100701.78;4975229;28;20482;-60
2022/06/02 02:38:24;;;;;;;17.98;12.48;;;;;;;22.90;56.10;100712.50;4977078;28;20042;-60
2022/06/02 02:41:19;;;;;;;19.73;12.25;;;;;;;22.89;55.85;100716.47;4971368;28;20051;-60
2022/06/02 02:44:34;;;;;;;15.73;12.57;;;;;;;22.97;55.84;100723.56;4975589;28;20047;-59
2022/06/02 02:47:42;;;;;;;16.20;11.48;;;;;;;23.02;55.48;100712.06;4974470;28;20043;-63
2022/06/02 02:50:33;;;;;;;17.33;11.48;;;;;;;23.04;55.52;100720.78;4974355;28;20039;-60
2022/06/02 02:53:24;;;;;;;26.17;16.65;;;;;;;22.83;55.54;100729.94;4973135;28;20050;-59
2022/06/02 02:56:18;;;;;;;19.30;14.75;;;;;;;22.74;55.76;100726.78;4973576;28;20042;-60
2022/06/02 02:59:31;;;;;;;15.75;12.05;;;;;;;22.90;55.80;100731.91;4973843;28;20047;-61
2022/06/02 03:02:33;;;;;;;18.35;11.90;;;;;;;22.93;55.60;100737.44;4975877;28;20038;-61
2022/06/02 03:05:33;;;;;;;15.32;12.70;;;;;;;22.99;55.67;100735.84;4976247;28;20050;-60
2022/06/02 03:08:27;;;;;;;18.83;13.50;;;;;;;23.00;55.31;100731.09;4977394;28;20042;-60
2022/06/02 03:11:52;;;;;;;19.58;14.45;;;;;;;22.92;55.35;100724.75;4975230;28;20494;-59
2022/06/02 03:14:43;;;;;;;20.55;12.93;;;;;;;22.92;55.36;100722.00;4974125;28;20047;-59
2022/06/02 03:17:43;;;;;;;17.70;12.93;;;;;;;22.94;55.47;100724.38;4973026;28;20482;-59
2022/06/02 03:20:53;;;;;;;14.07;12.18;;;;;;;22.97;55.47;100715.25;4973174;28;20399;-58
2022/06/02 03:23:56;;;;;;;23.40;14.65;;;;;;;22.93;55.17;100725.56;4975929;28;20039;-59
2022/06/02 03:26:51;;;;;;;20.60;12.65;;;;;;;22.93;55.36;100715.25;4973042;28;20046;-60
2022/06/02 03:30:02;;;;;;;27.30;15.85;;;;;;;22.95;55.34;100726.75;4972708;28;20475;-58
2022/06/02 03:33:05;;;;;;;20.48;12.55;;;;;;;22.93;55.63;100725.56;4972104;28;20030;-59
2022/06/02 03:36:15;;;;;;;16.92;13.45;;;;;;;22.96;55.54;100739.41;4976205;28;20046;-58
2022/06/02 03:39:10;;;;;;;20.38;13.60;;;;;;;22.96;55.16;100742.19;4966885;28;20043;-59
2022/06/02 03:42:16;;;;;;;15.80;12.55;;;;;;;22.93;55.37;100748.53;4972788;28;20039;-58
2022/06/02 03:45:04;;;;;;;17.05;13.65;;;;;;;22.93;55.32;100753.28;4958452;28;20047;-58
2022/06/02 03:48:08;;;;;;;20.85;14.05;;;;;;;22.91;55.15;100750.13;4957401;28;20047;-59
2022/06/02 03:50:56;;;;;;;19.50;14.00;;;;;;;22.93;55.36;100754.09;4955639;28;20047;-59
2022/06/02 03:53:57;;;;;;;22.88;13.70;;;;;;;22.94;55.30;100760.44;4953283;28;20043;-59
2022/06/02 03:56:58;;;;;;;21.23;13.63;;;;;;;22.94;54.98;100761.22;4971645;28;20034;-58
2022/06/02 04:00:10;;;;;;;17.58;13.20;;;;;;;22.93;55.02;100764.38;4965418;28;20406;-58
2022/06/02 04:03:05;;;;;;;16.77;13.60;;;;;;;22.93;55.15;100767.97;4972328;28;20042;-59
2022/06/02 04:06:09;;;;;;;19.08;14.02;;;;;;;22.94;55.06;100769.53;4970534;28;20051;-59
2022/06/02 04:09:02;;;;;;;22.55;14.00;;;;;;;22.94;55.01;100777.06;4966132;28;20030;-58
2022/06/02 04:15:24;;;;;;;20.00;14.32;;;;;;;22.94;55.19;100793.72;4970798;28;20039;-59
2022/06/02 04:18:41;;;;;;;20.38;14.20;;;;;;;22.90;55.09;100790.16;4969745;28;20039;-58
2022/06/02 04:21:57;;;;;;;24.60;16.30;;;;;;;22.87;55.21;100794.50;4974757;28;20039;-59
2022/06/02 04:25:07;;;;;;;20.15;15.20;;;;;;;22.72;55.91;100803.22;4969586;28;20494;-61
2022/06/02 04:28:04;;;;;;;28.05;16.85;;;;;;;22.48;57.28;100805.56;4965172;28;20407;-61
2022/06/02 04:30:51;;;;;;;26.02;16.50;;;;;;;22.24;58.15;100803.53;4972243;28;20046;-60
2022/06/02 04:33:48;;;;;;;22.92;16.63;;;;;;;22.01;59.08;100809.38;4978605;28;20050;-59
2022/06/02 04:36:42;;;;;;;24.85;16.77;;;;;;;21.89;59.63;100815.22;4977568;28;20058;-59
2022/06/02 04:40:07;;;;;;;28.20;16.05;;;;;;;22.18;58.43;100813.41;4976477;28;20143;-59
2022/06/02 04:43:31;;;;;;;28.27;17.20;;;;;;;22.17;58.61;100817.34;4972161;28;20415;-59
2022/06/02 04:46:22;;;;;;;20.67;14.02;;;;;;;22.35;58.11;100818.16;4975102;28;20038;-59
2022/06/02 04:49:16;;;;;;;24.08;15.18;;;;;;;22.36;58.21;100819.75;4975562;28;20039;-58
2022/06/02 04:52:26;;;;;;;25.27;16.23;;;;;;;22.19;59.26;100826.06;4976595;28;20050;-59
2022/06/02 04:55:44;;;;;;;28.27;15.75;;;;;;;22.07;60.06;100823.66;4979127;28;20042;-59
2022/06/02 04:58:51;;;;;;;20.58;16.02;;;;;;;22.03;60.10;100826.41;4973533;28;20043;-58
2022/06/02 05:01:51;;;;;;;22.20;14.00;;;;;;;22.18;59.37;100827.25;4977345;28;20043;-59
2022/06/02 05:04:53;;;;;;;29.20;16.40;;;;;;;22.16;60.22;100824.84;4982100;28;20042;-59
2022/06/02 05:08:00;;;;;;;37.47;19.63;;;;;;;22.19;60.04;100826.06;4980002;28;20042;-59
2022/06/02 05:11:18;;;;;;;21.90;15.10;;;;;;;22.30;59.85;100826.09;4975502;28;20039;-58
2022/06/02 05:14:31;;;;;;;19.85;16.52;;;;;;;22.22;60.54;100835.56;4977243;28;20042;-59
2022/06/02 05:17:39;;;;;;;23.50;16.92;;;;;;;22.31;60.16;100836.78;4973898;28;20482;-59
2022/06/02 05:20:33;;;;;;;28.65;18.15;;;;;;;22.35;59.99;100840.34;4975442;28;20043;-58
2022/06/02 05:23:39;;;;;;;26.90;18.55;;;;;;;22.42;60.07;100850.66;4975100;28;20035;-59
2022/06/02 05:26:43;;;;;;;26.05;17.45;;;;;;;22.40;59.87;100844.72;4972196;28;20495;-59
2022/06/02 05:29:31;;;;;;;27.80;19.02;;;;;;;22.34;60.82;100849.06;4972271;28;20043;-58
2022/06/02 05:32:34;;;;;;;30.83;19.42;;;;;;;22.35;60.83;100850.66;4978497;28;20495;-59
2022/06/02 05:35:25;;;;;;;29.98;20.13;;;;;;;22.28;61.56;100850.63;4974990;28;20442;-60
2022/06/02 05:38:45;;;;;;;37.25;19.17;;;;;;;22.33;61.36;100851.03;4974862;28;20581;-59
2022/06/02 05:41:42;;;;;;;70.10;20.75;;;;;;;22.35;61.44;100850.66;4981743;28;20038;-59
2022/06/02 05:44:50;;;;;;;53.92;19.77;;;;;;;22.37;61.23;100849.06;4982133;28;20047;-62
2022/06/02 05:47:41;;;;;;;33.33;20.15;;;;;;;22.37;61.54;100857.38;4979474;28;20039;-61
2022/06/02 05:50:32;;;;;;;34.30;20.55;;;;;;;22.44;61.26;100853.84;4974777;28;20487;-61
2022/06/02 05:53:33;;;;;;;50.42;20.30;;;;;;;22.39;61.52;100845.91;4975187;28;20035;-59
2022/06/02 05:56:26;;;;;;;33.22;20.20;;;;;;;22.41;62.05;100843.53;4973375;28;20047;-60
2022/06/02 05:59:11;;;;;;;32.50;21.02;;;;;;;22.28;62.66;100834.78;4971411;28;20434;-59
2022/06/02 06:02:39;;;;;;;30.80;21.05;;;;;;;22.32;62.23;100841.13;4974246;28;20043;-59
2022/06/02 06:05:33;;;;;;;31.55;20.88;;;;;;;22.29;62.68;100839.16;4973747;28;20042;-60
2022/06/02 06:08:36;;;;;;;27.77;20.73;;;;;;;22.39;63.04;100845.91;4974807;28;20043;-58
2022/06/02 06:11:43;;;;;;;28.95;19.65;;;;;;;22.47;62.58;100842.75;4955682;29;20047;-58
2022/06/02 06:14:48;;;;;;;36.03;19.90;;;;;;;22.47;63.37;100842.75;4955528;29;20043;-58
2022/06/02 06:17:47;;;;;;;29.45;19.83;;;;;;;22.45;63.23;100849.91;4955541;29;20039;-58
2022/06/02 06:20:57;;;;;;;27.20;20.75;;;;;;;22.55;62.88;100851.91;4969686;28;20423;-58
2022/06/02 06:24:11;;;;;;;30.48;19.70;;;;;;;22.54;62.25;100847.53;4974100;28;20042;-58
2022/06/02 06:27:14;;;;;;;38.45;20.73;;;;;;;22.58;62.59;100862.19;4968829;28;20047;-59
2022/06/02 06:30:03;;;;;;;32.67;20.20;;;;;;;22.60;61.30;100863.38;4965490;28;20043;-59
2022/06/02 06:32:58;;;;;;;30.17;20.25;;;;;;;22.56;62.33;100864.53;4958512;29;20047;-59
2022/06/02 06:35:58;;;;;;;33.42;22.55;;;;;;;22.64;62.70;100862.59;4960258;28;20043;-59
2022/06/02 06:39:01;;;;;;;28.17;19.90;;;;;;;22.69;61.67;100871.31;4957803;29;20043;-58
2022/06/02 06:41:54;;;;;;;30.20;19.08;;;;;;;22.78;60.53;100871.75;4972606;28;20043;-59
2022/06/02 06:44:49;;;;;;;31.23;18.92;;;;;;;22.90;60.70;100863.06;4967382;28;20430;-59
2022/06/02 06:47:42;;;;;;;22.65;17.48;;;;;;;23.12;59.84;100871.38;4973232;28;20038;-59
2022/06/02 06:50:54;;;;;;;27.45;17.80;;;;;;;23.19;59.61;100883.28;4964002;28;20055;-59
2022/06/02 06:54:10;;;;;;;28.63;19.02;;;;;;;23.24;59.71;100882.88;4953925;29;20404;-59
2022/06/02 06:57:16;;;;;;;29.58;18.40;;;;;;;23.40;58.84;100876.91;4953272;28;20483;-59
2022/06/02 07:00:33;;;;;;;32.22;18.27;;;;;;;23.57;58.71;100881.66;4955932;28;20039;-59
2022/06/02 07:03:47;;;;;;;28.05;16.65;;;;;;;23.68;59.28;100878.88;4973315;28;20522;-62
2022/06/02 07:06:55;;;;;;;28.80;16.85;;;;;;;23.78;58.56;100881.63;4970636;28;20062;-59
2022/06/02 07:09:57;;;;;;;42.38;17.33;;;;;;;23.86;58.72;100891.53;4970215;28;20046;-59
2022/06/02 07:12:55;;;;;;;33.28;14.18;;;;;;;23.84;57.99;100893.91;4969898;28;20043;-60
2022/06/02 07:15:44;;;;;;;27.90;14.48;;;;;;;23.91;57.37;100895.09;4971849;28;20046;-59
2022/06/02 07:19:02;;;;;;;30.25;15.93;;;;;;;23.96;58.50;100894.69;4972679;28;20047;-59
2022/06/02 07:22:12;;;;;;;30.85;15.88;;;;;;;24.08;58.77;100894.22;4963054;28;20474;-60
2022/06/02 07:25:17;;;;;;;24.90;15.48;;;;;;;24.29;57.40;100894.97;4968278;28;20070;-59
2022/06/02 07:28:13;;;;;;;35.58;15.60;;;;;;;24.34;57.19;100885.41;4968203;28;20503;-60
2022/06/02 07:31:24;;;;;;;50.67;18.58;;;;;;;24.47;57.24;100891.31;4967443;28;20035;-61
2022/06/02 07:34:41;;;;;;;42.13;19.10;;;;;;;24.57;57.54;100888.47;4970024;28;20039;-60
2022/06/02 07:37:46;;;;;;;176.80;41.90;;;;;;;24.67;56.77;100898.75;4968652;28;20039;-60
2022/06/02 07:41:02;;;;;;;39.33;18.88;;;;;;;24.78;56.69;100897.88;4972429;28;20415;-60
2022/06/02 07:44:06;;;;;;;34.88;15.65;;;;;;;24.86;56.75;100894.63;4963935;28;20038;-60
2022/06/02 07:46:59;;;;;;;42.30;18.67;;;;;;;24.98;56.16;100904.53;4967047;28;20046;-61
2022/06/02 07:49:55;;;;;;;27.15;16.58;;;;;;;25.07;55.72;100907.63;4975281;28;20039;-60
2022/06/02 07:53:02;;;;;;;89.15;28.08;;;;;;;24.99;55.01;100912.44;4971228;28;20043;-60
2022/06/02 07:55:53;;;;;;;27.75;14.05;;;;;;;25.04;55.82;100917.59;4971325;28;20046;-60
2022/06/02 07:59:11;;;;;;;27.77;16.05;;;;;;;25.18;55.17;100925.06;4971528;28;20035;-60
2022/06/02 08:02:34;;;;;;;42.67;16.67;;;;;;;25.24;54.76;100911.50;4971233;28;20042;-60
2022/06/02 08:05:35;;;;;;;26.60;15.65;;;;;;;25.32;55.11;100916.56;4971589;28;20039;-61
2022/06/02 08:08:45;;;;;;;31.27;15.13;;;;;;;25.51;54.05;100921.56;4971399;28;20046;-60
2022/06/02 08:11:45;;;;;;;24.48;13.57;;;;;;;25.63;55.00;100919.50;4976232;28;20043;-60
2022/06/02 08:14:45;;;;;;;33.53;15.48;;;;;;;25.76;55.07;100929.72;4974718;28;20047;-61
2022/06/02 08:17:36;;;;;;;30.15;17.02;;;;;;;25.73;54.87;100930.56;4977031;28;20039;-61
2022/06/02 08:20:48;;;;;;;25.00;13.68;;;;;;;25.71;54.79;100927.38;4973862;28;20395;-60
2022/06/02 08:23:56;;;;;;;22.55;12.20;;;;;;;25.76;54.97;100923.34;4974082;28;20047;-60
2022/06/02 08:26:59;;;;;;;32.63;13.77;;;;;;;25.83;54.49;100934.44;4974178;28;20043;-61
2022/06/02 08:30:05;;;;;;;25.65;13.02;;;;;;;25.91;54.11;100928.38;4967570;28;20491;-60
2022/06/02 08:33:03;;;;;;;26.17;12.35;;;;;;;25.92;53.12;100931.94;4974957;28;20038;-61
2022/06/02 08:35:59;;;;;;;25.88;13.50;;;;;;;25.93;52.87;100933.53;4972707;28;20035;-60
2022/06/02 08:39:31;;;;;;;23.55;11.25;;;;;;;26.16;52.88;100942.00;4968856;28;20035;-60
2022/06/02 08:42:38;;;;;;;33.90;11.45;;;;;;;26.27;52.50;100931.56;4974803;28;20171;-62
2022/06/02 08:45:42;;;;;;;27.88;11.48;;;;;;;26.31;52.71;100940.66;4971406;28;20042;-61
2022/06/02 08:48:50;;;;;;;24.50;13.30;;;;;;;26.20;51.98;100928.84;4973953;28;20046;-61
2022/06/02 08:52:02;;;;;;;26.60;12.95;;;;;;;26.50;52.07;100932.88;4974915;28;20038;-60
2022/06/02 08:55:16;;;;;;;22.73;12.35;;;;;;;26.60;50.90;100927.16;4972617;28;20407;-61
2022/06/02 08:58:26;;;;;;;34.38;13.43;;;;;;;26.57;51.04;100929.97;4974126;28;20043;-62
2022/06/02 09:01:23;;;;;;;28.98;11.75;;;;;;;26.50;52.09;100944.84;4975071;28;20035;-60
2022/06/02 09:04:32;;;;;;;21.30;12.10;;;;;;;26.50;51.67;100944.03;4974925;28;20047;-60
2022/06/02 09:07:23;;;;;;;17.50;10.68;;;;;;;26.52;50.92;100945.19;4974545;28;20035;-61
2022/06/02 09:10:38;;;;;;;20.55;11.73;;;;;;;26.65;51.01;100934.28;4974052;28;20487;-60
2022/06/02 09:13:48;;;;;;;26.27;12.30;;;;;;;26.92;50.89;100931.53;4972870;28;20426;-60
2022/06/02 09:16:54;;;;;;;30.27;12.88;;;;;;;26.95;50.22;100922.31;4973873;28;20055;-60
2022/06/02 09:19:48;;;;;;;21.98;11.27;;;;;;;26.97;50.41;100942.97;4978315;28;20682;-62
2022/06/02 09:22:48;;;;;;;29.97;12.10;;;;;;;27.05;49.21;100932.50;4974994;28;20410;-60
2022/06/02 09:25:55;;;;;;;20.05;9.95;;;;;;;27.03;49.26;100932.13;4977647;28;20038;-61
2022/06/02 09:28:59;;;;;;;24.40;12.43;;;;;;;27.15;49.13;100926.75;4976450;28;20062;-61
2022/06/02 09:32:27;;;;;;;23.50;12.60;;;;;;;27.22;48.77;100923.06;4970483;28;20034;-62
2022/06/02 09:35:29;;;;;;;23.10;12.10;;;;;;;27.35;48.43;100934.41;4972519;28;20277;-61
2022/06/02 09:38:13;;;;;;;20.27;12.10;;;;;;;27.31;48.91;100931.69;4974943;28;20035;-61
2022/06/02 09:41:35;;;;;;;22.77;10.40;;;;;;;27.44;47.86;100926.28;4973853;28;20031;-61
2022/06/02 09:44:42;;;;;;;21.17;11.00;;;;;;;27.51;48.95;100920.59;4970988;28;20034;-61
2022/06/02 09:47:48;;;;;;;31.08;12.52;;;;;;;27.56;48.89;100922.91;4966657;28;20569;-61
2022/06/02 09:51:01;;;;;;;23.00;11.77;;;;;;;27.57;49.03;100921.72;4969767;28;20510;-61
2022/06/02 09:54:20;;;;;;;19.35;11.55;;;;;;;27.48;49.32;100935.41;4966381;28;20058;-61
2022/06/02 10:00:39;;;;;;;27.77;12.75;;;;;;;27.62;48.01;100929.59;4965995;28;20051;-61
2022/06/02 10:03:28;;;;;;;17.15;11.38;;;;;;;27.64;49.05;100933.53;4970164;28;20051;-61
2022/06/02 10:06:41;;;;;;;18.67;11.32;;;;;;;27.73;48.67;100929.41;4968884;28;20043;-61
2022/06/02 10:10:00;;;;;;;23.00;10.82;;;;;;;27.90;48.04;100934.66;4968093;28;20043;-61
2022/06/02 10:13:19;;;;;;;27.08;12.30;;;;;;;27.99;48.96;100934.06;4968006;28;20038;-61
2022/06/02 10:16:35;;;;;;;17.13;12.10;;;;;;;27.96;48.04;100932.94;4960029;28;20419;-61
2022/06/02 10:19:48;;;;;;;19.30;11.05;;;;;;;27.86;47.13;100931.13;4958110;28;20783;-62
2022/06/02 10:22:40;;;;;;;19.77;10.35;;;;;;;27.93;46.84;100930.22;4963836;28;20047;-61
2022/06/02 10:25:31;;;;;;;23.00;11.00;;;;;;;28.06;46.83;100923.56;4966067;28;20042;-61
2022/06/02 10:28:25;;;;;;;14.40;8.88;;;;;;;28.11;46.96;100913.06;4964514;28;20396;-61
2022/06/02 10:31:38;;;;;;;30.02;13.70;;;;;;;28.22;46.75;100911.69;4970454;28;20050;-60
2022/06/02 10:34:49;;;;;;;23.17;10.40;;;;;;;28.39;45.81;100912.53;4969175;28;20050;-60
2022/06/02 10:37:58;;;;;;;26.92;9.50;;;;;;;28.36;44.87;100910.59;4967826;28;20055;-61
2022/06/02 10:40:46;;;;;;;14.85;10.18;;;;;;;28.37;45.53;100915.75;4965453;28;20042;-60
2022/06/02 10:43:53;;;;;;;12.98;8.63;;;;;;;28.46;43.81;100912.34;4973467;28;20051;-61
2022/06/02 10:46:41;;;;;;;16.02;9.02;;;;;;;28.34;44.39;100908.22;4970905;28;20037;-61
2022/06/02 10:49:34;;;;;;;17.73;8.63;;;;;;;28.36;44.84;100905.78;4975593;28;20119;-61
2022/06/02 10:52:19;;;;;;;19.15;10.07;;;;;;;28.34;45.41;100908.22;4964377;28;20617;-60
2022/06/02 10:55:26;;;;;;;21.50;11.38;;;;;;;28.36;45.42;100900.19;4965669;28;20039;-61
2022/06/02 10:58:13;;;;;;;16.42;9.88;;;;;;;28.44;44.90;100895.22;4967147;28;20031;-61
2022/06/02 11:01:13;;;;;;;19.63;10.00;;;;;;;28.55;45.04;100897.81;4964645;28;20144;-61
2022/06/02 11:04:30;;;;;;;19.13;7.82;;;;;;;28.77;43.89;100894.09;4967327;28;20047;-62
2022/06/02 11:07:51;;;;;;;19.13;9.65;;;;;;;28.89;43.08;100885.03;4963289;28;20050;-61
2022/06/02 11:11:09;;;;;;;21.63;9.93;;;;;;;28.83;43.61;100895.16;4956212;28;20035;-60
2022/06/02 11:14:19;;;;;;;14.00;9.40;;;;;;;28.89;43.71;100882.22;4957638;28;20411;-60
2022/06/02 11:17:29;;;;;;;15.90;9.52;;;;;;;28.95;43.43;100876.88;4963937;28;20058;-62
2022/06/02 11:20:36;;;;;;;14.95;8.10;;;;;;;28.94;42.97;100871.72;4959155;28;20046;-60
2022/06/02 11:23:58;;;;;;;21.70;9.15;;;;;;;28.85;42.39;100875.88;4961841;28;20043;-63
2022/06/02 11:27:04;;;;;;;14.13;8.02;;;;;;;28.85;42.25;100864.69;4970477;28;20077;-61
2022/06/02 11:30:04;;;;;;;12.43;7.30;;;;;;;28.87;42.41;100865.06;4953249;28;20119;-61
2022/06/02 11:33:14;;;;;;;18.65;7.68;;;;;;;28.88;43.96;100863.84;4949949;28;20043;-60
2022/06/02 11:36:16;;;;;;;12.13;8.43;;;;;;;28.72;43.54;100860.22;4953378;28;20411;-61
2022/06/02 11:39:14;;;;;;;16.70;8.88;;;;;;;28.86;43.43;100851.47;4955702;28;20069;-60
2022/06/02 11:42:36;;;;;;;14.65;8.35;;;;;;;29.03;43.20;100847.47;4959423;28;20037;-62
2022/06/02 11:45:59;;;;;;;19.85;9.40;;;;;;;29.05;42.45;100849.84;4965441;28;20053;-61
2022/06/02 11:49:06;;;;;;;16.70;8.98;;;;;;;29.14;43.63;100861.19;4962235;28;20038;-61
2022/06/02 11:52:10;;;;;;;14.70;8.60;;;;;;;29.16;42.59;100847.53;4968872;28;20066;-61
2022/06/02 11:55:13;;;;;;;15.43;9.25;;;;;;;29.13;42.44;100856.81;4952969;28;20043;-61
2022/06/02 11:58:38;;;;;;;13.30;7.53;;;;;;;29.21;41.82;100847.00;4952838;29;20426;-61
2022/06/02 12:01:40;;;;;;;12.43;7.70;;;;;;;29.31;41.94;100834.75;4968541;28;20470;-61
2022/06/02 12:05:01;;;;;;;16.48;8.43;;;;;;;29.41;41.55;100830.13;4968030;28;20619;-60
2022/06/02 12:07:53;;;;;;;12.93;7.65;;;;;;;29.35;42.02;100826.28;4965095;28;20066;-61
2022/06/02 12:10:55;;;;;;;12.80;7.55;;;;;;;29.28;42.16;100818.81;4963193;28;20054;-60
2022/06/02 12:13:48;;;;;;;14.23;7.85;;;;;;;29.25;41.93;100820.50;4965737;28;20038;-60
2022/06/02 12:16:44;;;;;;;13.98;8.02;;;;;;;29.37;42.34;100826.59;4958445;28;20047;-61
2022/06/02 12:19:58;;;;;;;21.58;7.68;;;;;;;29.44;41.68;100824.41;4953883;28;20035;-61
2022/06/02 12:22:46;;;;;;;17.77;8.52;;;;;;;29.58;42.44;100826.81;4952592;28;20046;-64
2022/06/02 12:25:43;;;;;;;14.93;9.25;;;;;;;29.54;41.58;100826.13;4970843;28;20050;-64
2022/06/02 12:28:34;;;;;;;14.05;7.60;;;;;;;29.53;41.69;100821.75;4973605;28;20086;-62
2022/06/02 12:31:38;;;;;;;14.32;7.50;;;;;;;29.46;41.83;100816.31;4972283;28;20050;-64
2022/06/02 12:35:03;;;;;;;22.30;8.75;;;;;;;29.40;42.19;100820.91;4978587;28;20057;-64
2022/06/02 12:38:10;;;;;;;13.57;7.65;;;;;;;29.40;41.68;100815.31;4971092;28;20053;-64
2022/06/02 12:41:32;;;;;;;20.52;8.90;;;;;;;29.33;41.76;100815.50;4958273;29;20058;-62
2022/06/02 12:44:32;;;;;;;11.73;6.55;;;;;;;29.24;42.40;100816.09;4972367;28;20049;-64
2022/06/02 12:47:43;;;;;;;20.15;9.02;;;;;;;29.10;43.08;100818.50;4972048;28;20069;-62
2022/06/02 12:51:17;;;;;;;11.90;6.60;;;;;;;29.18;42.59;100819.88;4971988;28;20054;-64
2022/06/02 12:54:24;;;;;;;17.48;7.32;;;;;;;29.34;41.83;100828.28;4972451;28;20065;-64
2022/06/02 12:57:24;;;;;;;15.18;6.63;;;;;;;29.40;42.73;100823.72;4976208;28;20406;-62
2022/06/02 13:00:13;;;;;;;12.90;5.80;;;;;;;29.49;42.46;100823.88;4981361;28;20049;-63
2022/06/02 13:03:29;;;;;;;12.50;6.20;;;;;;;29.65;40.32;100823.03;4975449;28;20046;-64
2022/06/02 13:06:16;;;;;;;16.48;6.70;;;;;;;29.65;41.59;100821.03;4981115;28;20055;-63
2022/06/02 13:09:07;;;;;;;14.75;7.22;;;;;;;29.59;41.22;100822.78;4975602;28;20054;-62
2022/06/02 13:12:30;;;;;;;20.85;6.82;;;;;;;29.68;41.42;100822.13;4982146;28;20054;-64
2022/06/02 13:15:58;;;;;;;15.43;5.88;;;;;;;29.72;41.05;100820.81;4982341;28;20391;-63
2022/06/02 13:19:21;;;;;;;16.30;5.50;;;;;;;29.70;39.63;100816.88;4975660;28;20062;-64
2022/06/02 13:22:06;;;;;;;14.30;6.63;;;;;;;29.72;39.87;100818.00;4982002;28;20046;-64
2022/06/02 13:24:57;;;;;;;8.05;5.32;;;;;;;29.67;39.81;100815.75;4980964;28;20053;-62
2022/06/02 13:27:54;;;;;;;7.80;4.88;;;;;;;29.74;40.41;100823.97;4978290;28;20065;-63
2022/06/02 13:30:39;;;;;;;9.13;5.53;;;;;;;29.67;40.34;100812.16;4974805;28;20058;-63
2022/06/02 13:34:01;;;;;;;10.13;6.25;;;;;;;29.58;41.26;100809.22;4974722;28;20041;-64
2022/06/02 13:36:58;;;;;;;9.77;4.88;;;;;;;29.56;40.03;100800.47;4974258;28;20537;-63
2022/06/02 13:40:04;;;;;;;10.43;5.72;;;;;;;29.47;39.97;100801.09;4974627;28;20631;-64
2022/06/02 13:43:03;;;;;;;18.13;5.93;;;;;;;29.38;41.84;100800.94;4974834;28;20046;-64
2022/06/02 13:46:22;;;;;;;13.07;5.93;;;;;;;29.40;40.85;100792.91;4975091;28;20062;-64
2022/06/02 13:49:13;;;;;;;15.63;5.80;;;;;;;29.38;40.96;100795.34;4954666;29;20050;-64
2022/06/02 13:52:23;;;;;;;13.52;6.00;;;;;;;29.43;40.70;100792.00;4961242;28;20046;-63
2022/06/02 13:58:47;;;;;;;11.38;6.32;;;;;;;29.41;40.82;100790.88;4955352;29;20042;-64
2022/06/02 14:01:58;;;;;;;9.40;5.45;;;;;;;29.29;39.90;100786.75;4955320;29;20423;-64
2022/06/02 14:04:58;;;;;;;11.07;5.45;;;;;;;29.22;40.40;100784.16;4955182;29;20407;-64
2022/06/02 14:08:02;;;;;;;15.18;6.00;;;;;;;29.25;40.16;100783.28;4958582;28;20050;-63
2022/06/02 14:11:35;;;;;;;14.48;6.13;;;;;;;29.27;41.54;100772.41;4955377;29;20046;-64
2022/06/02 14:14:35;;;;;;;11.40;7.13;;;;;;;29.31;40.90;100764.72;4954924;29;20054;-64